createdAt,value
2022-12-05T00:01:13.386Z,0.48
2022-12-05T00:06:36.527Z,0.27
2022-12-05T00:11:58.296Z,0.52
2022-12-05T00:17:20.087Z,0.70
2022-12-05T00:22:41.886Z,0.65
2022-12-05T00:28:03.818Z,0.76
2022-12-05T00:33:25.628Z,0.78
2022-12-05T00:38:47.836Z,0.92
2022-12-05T00:44:12.003Z,0.42
2022-12-05T00:49:33.891Z,0.49
2022-12-05T00:54:55.679Z,0.66
2022-12-05T01:00:17.908Z,0.71
2022-12-05T01:05:39.752Z,0.43
2022-12-05T01:11:02.405Z,0.44
2022-12-05T01:16:30.396Z,0.32
2022-12-05T01:21:53.103Z,0.52
2022-12-05T01:27:14.889Z,0.37
2022-12-05T01:32:36.643Z,0.15
2022-12-05T01:37:58.498Z,0.17
2022-12-05T01:43:20.382Z,0.46
2022-12-05T01:48:42.204Z,0.47
2022-12-05T01:54:05.309Z,0.42
2022-12-05T01:59:30.306Z,0.14
2022-12-05T02:05:02.537Z,0.20
2022-12-05T02:10:25.802Z,0.58
2022-12-05T02:15:59.320Z,0.55
2022-12-05T02:21:39.788Z,0.40
2022-12-05T02:27:04.517Z,0.43
2022-12-05T02:33:04.594Z,0.20
2022-12-05T02:38:49.910Z,0.55
2022-12-05T02:44:18.406Z,0.26
2022-12-05T02:49:42.080Z,0.46
2022-12-05T02:55:07.435Z,0.39
2022-12-05T03:00:29.224Z,0.23
2022-12-05T03:06:01.417Z,0.27
2022-12-05T03:11:23.613Z,0.13
2022-12-05T03:16:52.635Z,0.43
2022-12-05T03:22:24.284Z,0.14
2022-12-05T03:28:08.934Z,0.20
2022-12-05T03:33:36.005Z,0.21
2022-12-05T03:39:04.774Z,0.53
2022-12-05T03:44:42.663Z,0.52
2022-12-05T03:50:11.945Z,0.68
2022-12-05T03:55:39.247Z,0.54
2022-12-05T04:01:03.704Z,0.49
2022-12-05T04:06:39.163Z,0.53
2022-12-05T04:12:06.782Z,0.40
2022-12-05T04:17:53.930Z,0.54
2022-12-05T04:23:16.616Z,0.28
2022-12-05T04:28:54.230Z,0.39
2022-12-05T04:34:20.054Z,0.14
2022-12-05T04:39:48.935Z,0.25
2022-12-05T04:45:18.148Z,0.50
2022-12-05T04:50:41.953Z,0.27
2022-12-05T04:56:05.539Z,0.14
2022-12-05T05:01:50.715Z,-0.05
2022-12-05T05:07:14.098Z,0.16
2022-12-05T05:12:35.893Z,0.14
2022-12-05T05:17:57.720Z,0.20
2022-12-05T05:23:19.498Z,0.14
2022-12-05T05:28:41.385Z,0.14
2022-12-05T05:34:09.393Z,0.55
2022-12-05T05:39:31.750Z,0.65
2022-12-05T05:44:53.578Z,0.66
2022-12-05T05:50:21.089Z,0.51
2022-12-05T05:55:43.401Z,0.16
2022-12-05T06:01:13.088Z,0.44
2022-12-05T06:06:34.924Z,0.46
2022-12-05T06:11:56.708Z,0.43
2022-12-05T06:17:18.723Z,0.31
2022-12-05T06:22:40.601Z,0.34
2022-12-05T06:28:02.409Z,0.36
2022-12-05T06:33:24.339Z,0.43
2022-12-05T06:38:46.122Z,0.14
2022-12-05T06:44:09.476Z,0.53
2022-12-05T06:49:34.917Z,0.40
2022-12-05T06:54:59.537Z,0.63
2022-12-05T07:00:21.456Z,0.35
2022-12-05T07:05:43.207Z,0.44
2022-12-05T07:11:05.233Z,0.72
2022-12-05T07:16:27.194Z,0.55
2022-12-05T07:21:49.045Z,0.57
2022-12-05T07:27:11.125Z,0.52
2022-12-05T07:32:34.139Z,0.56
2022-12-05T07:37:55.974Z,0.76
2022-12-05T07:43:17.737Z,0.59
2022-12-05T07:48:39.967Z,0.75
2022-12-05T07:54:02.375Z,0.75
2022-12-05T07:59:24.136Z,0.80
2022-12-05T08:04:45.959Z,0.54
2022-12-05T08:10:08.343Z,0.65
2022-12-05T08:15:30.259Z,0.73
2022-12-05T08:20:52.024Z,0.71
2022-12-05T08:26:15.523Z,0.71
2022-12-05T08:31:44.866Z,0.76
2022-12-05T08:37:06.639Z,0.92
2022-12-05T08:42:28.463Z,0.59
2022-12-05T08:47:50.261Z,0.73
2022-12-05T08:53:12.118Z,0.92
2022-12-05T08:58:34.764Z,1.06
2022-12-05T09:03:56.803Z,1.15
2022-12-05T09:09:18.675Z,1.00
2022-12-05T09:14:40.602Z,1.22
2022-12-05T09:20:03.771Z,1.14
2022-12-05T09:25:25.551Z,0.76
2022-12-05T09:31:02.385Z,1.01
2022-12-05T09:36:29.596Z,1.12
2022-12-05T09:41:57.437Z,1.04
2022-12-05T09:47:28.077Z,0.86
2022-12-05T09:53:18.369Z,0.67
2022-12-05T09:58:46.427Z,0.93
2022-12-05T10:04:54.443Z,0.90
2022-12-05T10:10:32.762Z,0.81
2022-12-05T10:16:00.047Z,0.89
2022-12-05T10:21:28.815Z,0.79
2022-12-05T10:26:59.084Z,1.04
2022-12-05T10:32:54.503Z,0.86
2022-12-05T10:38:32.698Z,1.28
2022-12-05T10:43:56.294Z,0.91
2022-12-05T10:49:18.817Z,1.25
2022-12-05T10:54:49.185Z,1.32
2022-12-05T11:00:15.917Z,1.40
2022-12-05T11:05:38.269Z,1.52
2022-12-05T11:11:17.739Z,1.37
2022-12-05T11:16:39.839Z,1.61
2022-12-05T11:22:02.619Z,1.40
2022-12-05T11:27:32.482Z,1.35
2022-12-05T11:33:20.683Z,1.18
2022-12-05T11:38:42.929Z,1.34
2022-12-05T11:44:22.509Z,1.31
2022-12-05T11:50:28.409Z,1.24
2022-12-05T11:56:16.821Z,1.30
2022-12-05T12:02:04.309Z,1.30
2022-12-05T12:07:51.064Z,1.37
2022-12-05T12:13:35.385Z,1.44
2022-12-05T12:19:15.518Z,1.42
2022-12-05T12:24:59.434Z,1.18
2022-12-05T12:30:38.024Z,1.29
2022-12-05T12:36:23.060Z,1.50
2022-12-05T12:42:18.455Z,1.32
2022-12-05T12:48:00.144Z,1.49
2022-12-05T12:53:42.102Z,1.53
2022-12-05T12:59:22.437Z,1.77
2022-12-05T13:04:52.991Z,1.55
2022-12-05T13:10:37.270Z,1.49
2022-12-05T13:16:01.550Z,1.36
2022-12-05T13:21:24.202Z,1.50
2022-12-05T13:26:49.031Z,1.39
2022-12-05T13:32:38.833Z,1.53
2022-12-05T13:38:00.664Z,1.31
2022-12-05T13:43:26.663Z,1.26
2022-12-05T13:48:49.737Z,1.41
2022-12-05T13:54:18.251Z,1.40
2022-12-05T14:00:05.202Z,1.36
2022-12-05T14:05:42.522Z,1.25
2022-12-05T14:11:04.315Z,1.28
2022-12-05T14:16:26.145Z,1.38
2022-12-05T14:22:03.312Z,1.24
2022-12-05T14:28:02.054Z,1.28
2022-12-05T14:33:23.885Z,1.44
2022-12-05T14:38:45.714Z,1.53
2022-12-05T14:44:18.447Z,1.65
2022-12-05T14:49:58.768Z,1.56
2022-12-05T14:55:26.455Z,1.47
2022-12-05T15:00:57.480Z,1.73
2022-12-05T15:06:20.370Z,1.77
2022-12-05T15:11:42.214Z,1.73
2022-12-05T15:17:06.028Z,1.62
2022-12-05T15:22:29.450Z,1.43
2022-12-05T15:28:19.019Z,1.52
2022-12-05T15:33:52.375Z,1.35
2022-12-05T15:39:23.702Z,1.50
2022-12-05T15:44:45.590Z,1.55
2022-12-05T15:50:25.820Z,1.63
2022-12-05T15:55:55.248Z,1.62
2022-12-05T16:01:20.925Z,1.38
2022-12-05T16:06:48.301Z,1.40
2022-12-05T16:12:19.252Z,1.64
2022-12-05T16:17:46.070Z,1.52
2022-12-05T16:23:43.562Z,1.66
2022-12-05T16:29:08.748Z,1.67
2022-12-05T16:34:33.703Z,1.60
2022-12-05T16:39:56.615Z,1.67
2022-12-05T16:45:39.676Z,1.75
2022-12-05T16:51:13.830Z,1.77
2022-12-05T16:56:36.165Z,1.65
2022-12-05T17:01:58.038Z,1.72
2022-12-05T17:07:19.910Z,1.73
2022-12-05T17:12:47.779Z,1.87
2022-12-05T17:18:18.561Z,1.76
2022-12-05T17:23:46.017Z,1.85
2022-12-05T17:29:09.700Z,1.75
2022-12-05T17:34:31.460Z,1.97
2022-12-05T17:39:53.206Z,1.97
2022-12-05T17:45:16.518Z,1.95
2022-12-05T17:50:40.635Z,2.14
2022-12-05T17:56:02.486Z,2.11
2022-12-05T18:01:24.444Z,2.10
2022-12-05T18:06:46.286Z,2.17
2022-12-05T18:12:08.090Z,2.22
2022-12-05T18:17:30.081Z,2.40
2022-12-05T18:22:51.893Z,2.32
2022-12-05T18:28:17.774Z,2.10
2022-12-05T18:33:43.405Z,2.31
2022-12-05T18:39:05.489Z,2.31
2022-12-05T18:44:27.269Z,2.06
2022-12-05T18:49:49.056Z,2.13
2022-12-05T18:55:17.274Z,2.32
2022-12-05T19:00:39.787Z,2.27
2022-12-05T19:06:02.046Z,2.19
2022-12-05T19:11:25.960Z,2.17
2022-12-05T19:16:58.074Z,2.10
2022-12-05T19:22:21.830Z,2.38
2022-12-05T19:27:45.393Z,2.39
2022-12-05T19:33:07.233Z,2.36
2022-12-05T19:38:34.162Z,2.48
2022-12-05T19:43:59.666Z,2.37
2022-12-05T19:49:21.719Z,2.45
2022-12-05T19:54:44.223Z,2.42
2022-12-05T20:00:07.109Z,2.25
2022-12-05T20:05:28.942Z,2.23
2022-12-05T20:10:50.717Z,2.10
2022-12-05T20:16:14.815Z,2.38
2022-12-05T20:21:37.985Z,2.33
2022-12-05T20:26:59.857Z,2.15
2022-12-05T20:32:21.679Z,2.34
2022-12-05T20:37:43.615Z,2.27
2022-12-05T20:43:05.604Z,2.18
2022-12-05T20:48:27.390Z,2.24
2022-12-05T20:53:50.214Z,2.21
2022-12-05T20:59:13.272Z,2.11
2022-12-05T21:04:35.074Z,2.22
2022-12-05T21:09:57.025Z,2.13
2022-12-05T21:15:19.121Z,2.35
2022-12-05T21:20:42.418Z,2.24
2022-12-05T21:26:06.912Z,2.30
2022-12-05T21:31:35.157Z,2.39
2022-12-05T21:36:57.159Z,2.30
2022-12-05T21:42:19.022Z,2.34
2022-12-05T21:47:40.879Z,2.44
2022-12-05T21:53:02.744Z,2.27
2022-12-05T21:58:24.626Z,2.30
2022-12-05T22:03:46.923Z,2.45
2022-12-05T22:09:08.764Z,2.18
2022-12-05T22:14:30.650Z,2.33
2022-12-05T22:19:52.476Z,2.37
2022-12-05T22:25:14.294Z,2.41
2022-12-05T22:30:36.054Z,2.36
2022-12-05T22:36:00.267Z,2.16
2022-12-05T22:41:25.170Z,2.15
2022-12-05T22:46:47.042Z,2.31
2022-12-05T22:52:08.871Z,2.30
2022-12-05T22:57:30.779Z,2.31
2022-12-05T23:02:52.931Z,2.44
2022-12-05T23:08:15.141Z,2.44
2022-12-05T23:13:38.235Z,2.39
2022-12-05T23:19:02.909Z,2.38
2022-12-05T23:24:24.732Z,2.32
2022-12-05T23:29:47.139Z,2.31
2022-12-05T23:35:09.141Z,2.46
2022-12-05T23:40:30.945Z,2.43
2022-12-05T23:45:52.814Z,2.40
2022-12-05T23:51:18.186Z,2.44
2022-12-05T23:56:40.096Z,2.42
